Time;durP1;ratioP1;P1;durP2;ratioP2;P2;SDS_P1;SDS_P2;PMS_P1;PMS_P2;Temp;Humidity;BMP_temperature;BMP_pressure;BME280_temperature;BME280_humidity;BME280_pressure;Samples;Min_cycle;Max_cycle;Signal;HPM_P1;HPM_P2
2024/04/06 00:01:07;;;;;;;4.17;3.30;;;;;;;20.56;46.29;98716.25;6817373;29;20603;-82
2024/04/06 00:04:30;;;;;;;5.00;3.00;;;;;;;20.08;47.50;98719.41;6816151;29;20231;-81
2024/04/06 00:07:52;;;;;;;2.60;2.13;;;;;;;20.36;46.39;98718.97;6814562;29;20682;-82
2024/04/06 00:11:12;;;;;;;5.00;2.30;;;;;;;20.22;46.84;98720.59;6815298;29;20271;-82
2024/04/06 00:14:34;;;;;;;4.63;2.23;;;;;;;20.19;47.19;98688.25;6813606;29;20270;-82
2024/04/06 00:17:55;;;;;;;2.60;2.33;;;;;;;19.86;47.74;98707.81;6813146;29;20812;-83
2024/04/06 00:21:17;;;;;;;4.30;2.10;;;;;;;20.12;46.33;98704.94;6813050;29;20293;-81
2024/04/06 00:24:39;;;;;;;4.57;2.20;;;;;;;19.76;47.27;98702.28;6815932;29;20289;-82
2024/04/06 00:27:59;;;;;;;4.33;1.97;;;;;;;19.82;47.70;98704.75;6817269;29;20265;-81
2024/04/06 00:31:20;;;;;;;2.33;2.13;;;;;;;19.94;47.25;98704.56;6818004;29;20238;-80
2024/04/06 00:34:42;;;;;;;3.00;1.90;;;;;;;19.98;47.79;98706.47;6814292;29;20285;-82
2024/04/06 00:38:04;;;;;;;4.07;2.20;;;;;;;19.80;47.58;98708.88;6813927;29;20629;-82
2024/04/06 00:41:26;;;;;;;2.40;1.90;;;;;;;19.67;47.65;98677.34;6814981;29;20214;-81
2024/04/06 00:44:46;;;;;;;2.73;1.97;;;;;;;19.88;46.58;98670.06;6815077;29;20282;-82
2024/04/06 00:48:09;;;;;;;4.13;2.40;;;;;;;19.76;47.75;98703.09;6814562;29;20214;-82
2024/04/06 00:51:30;;;;;;;3.00;2.10;;;;;;;19.64;48.14;98707.16;6815607;29;20600;-82
2024/04/06 00:54:53;;;;;;;4.03;2.17;;;;;;;19.61;47.74;98715.88;6813406;29;20543;-82
2024/04/06 00:58:16;;;;;;;3.27;2.00;;;;;;;19.88;47.88;98725.59;6811503;29;20667;-82
2024/04/06 01:01:37;;;;;;;3.27;2.30;;;;;;;19.96;47.81;98727.84;6812679;29;20229;-82
2024/04/06 01:04:58;;;;;;;3.23;2.10;;;;;;;20.10;47.53;98734.47;6814447;29;20268;-82
2024/04/06 01:08:19;;;;;;;4.70;2.13;;;;;;;19.62;48.47;98728.44;6813791;29;20230;-82
2024/04/06 01:11:41;;;;;;;3.47;2.03;;;;;;;19.27;49.47;98734.53;6814017;29;20242;-81
2024/04/06 01:15:03;;;;;;;2.27;1.97;;;;;;;19.48;48.54;98727.28;6813040;29;20282;-82
2024/04/06 01:18:23;;;;;;;2.00;1.90;;;;;;;19.26;49.15;98718.38;6810792;29;20319;-82
2024/04/06 01:21:45;;;;;;;2.83;1.93;;;;;;;19.40;48.92;98731.31;6811932;29;20230;-82
2024/04/06 01:25:08;;;;;;;2.93;2.10;;;;;;;19.55;48.34;98727.88;6811258;29;20242;-82
2024/04/06 01:28:29;;;;;;;2.10;1.90;;;;;;;19.10;49.57;98720.13;6808585;29;20266;-82
2024/04/06 01:31:51;;;;;;;2.47;2.20;;;;;;;18.57;51.21;98725.69;6809629;29;20644;-81
2024/04/06 01:35:11;;;;;;;3.53;2.17;;;;;;;18.81;50.95;98737.13;6800529;29;20203;-81
2024/04/06 01:38:33;;;;;;;3.67;3.00;;;;;;;18.98;50.14;98735.88;6784901;29;20242;-81
2024/04/06 01:41:55;;;;;;;2.43;2.23;;;;;;;18.95;50.18;98746.53;6809308;29;20317;-81
2024/04/06 01:45:16;;;;;;;4.77;2.30;;;;;;;18.97;49.77;98730.69;6810006;29;20234;-80
2024/04/06 01:48:37;;;;;;;3.57;1.97;;;;;;;18.75;50.29;98740.88;6810412;29;20581;-81
2024/04/06 01:51:58;;;;;;;5.20;2.40;;;;;;;18.30;51.39;98737.63;6810493;29;20659;-81
2024/04/06 01:55:20;;;;;;;4.93;2.37;;;;;;;18.03;51.60;98748.50;6810181;29;20358;-82
2024/04/06 01:58:43;;;;;;;4.90;2.13;;;;;;;17.76;52.42;98738.59;6809680;29;20269;-80
2024/04/06 02:02:04;;;;;;;4.47;2.13;;;;;;;17.96;51.84;98742.41;6809928;29;20262;-81
2024/04/06 02:05:25;;;;;;;2.10;1.90;;;;;;;18.06;51.29;98739.00;6809176;29;20365;-81
2024/04/06 02:08:46;;;;;;;2.57;2.37;;;;;;;18.27;50.70;98725.31;6808789;29;20234;-81
2024/04/06 02:12:08;;;;;;;2.33;2.13;;;;;;;17.64;51.83;98746.88;6809522;29;20318;-82
2024/04/06 02:15:32;;;;;;;3.40;2.20;;;;;;;17.06;53.29;98743.81;6810936;29;20210;-80
2024/04/06 02:18:52;;;;;;;4.60;2.40;;;;;;;17.58;51.56;98733.44;6813803;29;20257;-82
2024/04/06 02:22:14;;;;;;;6.73;2.30;;;;;;;17.73;50.97;98723.56;6817403;29;20781;-82
2024/04/06 02:25:35;;;;;;;2.50;2.30;;;;;;;17.57;51.00;98716.25;6815754;29;20274;-81
2024/04/06 02:28:57;;;;;;;2.10;1.90;;;;;;;17.12;52.82;98723.75;6814465;29;20226;-81
2024/04/06 02:32:20;;;;;;;2.70;1.90;;;;;;;17.38;51.28;98711.34;6789073;29;20294;-81
2024/04/06 02:35:40;;;;;;;3.63;2.20;;;;;;;17.59;50.76;98718.72;6788880;29;20211;-82
2024/04/06 02:39:02;;;;;;;5.60;2.40;;;;;;;17.21;51.59;98705.06;6788075;29;20265;-81
2024/04/06 02:42:23;;;;;;;3.10;2.43;;;;;;;17.48;50.89;98730.56;6788997;29;20262;-79
2024/04/06 02:45:45;;;;;;;3.10;2.80;;;;;;;17.53;51.00;98723.31;6788207;29;20225;-81
2024/04/06 02:49:07;;;;;;;2.13;2.03;;;;;;;17.67;50.17;98710.09;6788052;29;20577;-82
2024/04/06 02:52:29;;;;;;;3.30;2.20;;;;;;;17.44;49.76;98708.44;6816246;29;20210;-80
2024/04/06 02:55:51;;;;;;;6.60;2.33;;;;;;;17.18;50.66;98711.00;6818427;29;20306;-80
2024/04/06 02:59:11;;;;;;;2.40;2.20;;;;;;;17.27;50.54;98707.59;6817365;29;20237;-80
2024/04/06 03:02:33;;;;;;;2.50;2.30;;;;;;;17.11;50.35;98699.47;6815255;29;20233;-82
2024/04/06 03:05:56;;;;;;;3.90;2.20;;;;;;;17.37;49.06;98702.31;6813204;29;20300;-82
2024/04/06 03:09:18;;;;;;;2.20;2.10;;;;;;;17.37;49.50;98705.03;6812571;29;20325;-81
2024/04/06 03:12:38;;;;;;;2.47;2.27;;;;;;;17.23;50.09;98709.19;6813054;29;20424;-81
2024/04/06 03:16:00;;;;;;;3.20;1.90;;;;;;;17.44;49.37;98697.53;6814296;29;20240;-81
2024/04/06 03:19:20;;;;;;;5.67;3.00;;;;;;;17.79;48.57;98706.19;6799577;29;20234;-81
2024/04/06 03:22:58;;;;;;;3.17;2.40;;;;;;;17.72;48.24;98710.19;6816755;29;20256;-81
2024/04/06 03:26:19;;;;;;;3.23;2.30;;;;;;;17.72;48.50;98721.94;6815697;29;20316;-80
2024/04/06 03:29:40;;;;;;;4.10;2.43;;;;;;;17.70;48.97;98717.81;6810625;29;20728;-79
2024/04/06 03:33:01;;;;;;;4.97;2.50;;;;;;;17.53;49.49;98727.91;6811459;29;20671;-79
2024/04/06 03:36:23;;;;;;;3.57;2.37;;;;;;;16.87;51.38;98730.69;6805724;29;20247;-79
2024/04/06 03:39:46;;;;;;;3.50;2.50;;;;;;;17.01;51.59;98723.81;6810796;29;20369;-79
2024/04/06 03:43:07;;;;;;;2.53;2.10;;;;;;;17.38;50.61;98727.69;6810618;29;20321;-79
2024/04/06 03:46:29;;;;;;;2.20;2.00;;;;;;;17.31;50.63;98727.00;6809862;29;20304;-79
2024/04/06 03:49:50;;;;;;;3.63;2.20;;;;;;;17.27;49.97;98701.34;6809715;29;20238;-79
2024/04/06 03:53:12;;;;;;;2.37;2.23;;;;;;;16.84;51.27;98723.81;6810465;29;20211;-80
2024/04/06 03:56:34;;;;;;;3.93;2.33;;;;;;;17.00;51.39;98730.34;6809691;29;20210;-80
2024/04/06 03:59:55;;;;;;;2.53;2.33;;;;;;;17.03;50.67;98721.66;6810635;29;20226;-79
2024/04/06 04:03:16;;;;;;;3.67;2.20;;;;;;;17.17;49.30;98704.72;6810062;29;20269;-79
2024/04/06 04:06:37;;;;;;;2.50;2.30;;;;;;;17.35;48.40;98717.28;6809476;29;20207;-79
2024/04/06 04:10:01;;;;;;;3.00;2.43;;;;;;;17.56;47.87;98713.78;6810182;29;20453;-79
2024/04/06 04:13:24;;;;;;;3.03;2.17;;;;;;;17.49;48.23;98702.22;6810159;29;20671;-80
2024/04/06 04:16:45;;;;;;;2.97;2.47;;;;;;;17.63;47.93;98715.25;6809400;29;20689;-79
2024/04/06 04:20:08;;;;;;;2.87;2.50;;;;;;;17.63;47.87;98720.69;6809702;29;20721;-79
2024/04/06 04:23:29;;;;;;;2.73;2.50;;;;;;;17.58;48.11;98730.72;6809523;29;20293;-79
2024/04/06 04:26:51;;;;;;;2.83;2.50;;;;;;;17.67;47.71;98726.47;6808919;29;20712;-79
2024/04/06 04:30:15;;;;;;;2.50;2.30;;;;;;;17.38;49.02;98733.97;6809065;29;20373;-81
2024/04/06 04:33:36;;;;;;;2.87;2.67;;;;;;;17.21;49.64;98735.84;6809738;29;20213;-80
2024/04/06 04:36:57;;;;;;;6.60;2.40;;;;;;;16.98;50.41;98727.84;6808575;29;20212;-79
2024/04/06 04:40:19;;;;;;;3.03;2.33;;;;;;;16.91;50.31;98731.81;6808953;29;20383;-79
2024/04/06 04:43:39;;;;;;;4.20;2.97;;;;;;;16.78;50.78;98732.97;6809650;29;20721;-79
2024/04/06 04:47:02;;;;;;;2.37;2.17;;;;;;;16.85;50.92;98740.97;6809009;29;20757;-79
2024/04/06 04:50:23;;;;;;;2.73;2.33;;;;;;;16.75;50.71;98738.91;6809068;29;20220;-80
2024/04/06 04:53:44;;;;;;;4.20;2.57;;;;;;;16.61;51.62;98755.78;6809306;29;20202;-79
2024/04/06 04:57:06;;;;;;;2.87;2.33;;;;;;;16.53;51.92;98756.19;6808410;29;20214;-79
2024/04/06 05:00:27;;;;;;;3.67;2.80;;;;;;;16.55;51.97;98762.22;6809576;29;20377;-80
2024/04/06 05:03:49;;;;;;;3.00;2.67;;;;;;;16.35;52.62;98769.97;6815109;29;20262;-81
2024/04/06 05:07:11;;;;;;;3.23;2.90;;;;;;;16.07;52.80;98765.34;6813674;29;20211;-82
2024/04/06 05:10:31;;;;;;;3.50;2.60;;;;;;;16.15;53.05;98764.94;6814690;29;20723;-82
2024/04/06 05:13:53;;;;;;;3.60;2.70;;;;;;;16.53;51.85;98772.53;6814886;29;20782;-82
2024/04/06 05:17:14;;;;;;;2.80;2.60;;;;;;;16.09;52.28;98782.22;6816170;29;20301;-82
2024/04/06 05:20:36;;;;;;;3.70;2.83;;;;;;;16.09;53.12;98773.22;6814465;29;20234;-82
2024/04/06 05:23:58;;;;;;;3.23;2.40;;;;;;;15.82;52.54;98734.88;6814708;29;20256;-81
2024/04/06 05:27:19;;;;;;;3.03;2.63;;;;;;;16.01;53.35;98776.34;6813463;29;20362;-80
2024/04/06 05:30:41;;;;;;;3.83;2.47;;;;;;;16.00;53.36;98775.53;6813890;29;20223;-81
2024/04/06 05:34:01;;;;;;;5.17;3.10;;;;;;;15.91;53.86;98778.84;6813979;29;20685;-80
2024/04/06 05:37:24;;;;;;;2.97;2.67;;;;;;;16.14;53.36;98782.34;6797893;29;20675;-82
2024/04/06 05:40:46;;;;;;;5.07;3.00;;;;;;;16.27;53.23;98782.06;6814703;29;20321;-80
2024/04/06 05:44:07;;;;;;;3.17;2.70;;;;;;;16.12;53.60;98784.50;6811523;29;20328;-82
2024/04/06 05:47:29;;;;;;;4.63;2.80;;;;;;;15.68;54.56;98779.72;6810349;29;20210;-80
2024/04/06 05:50:49;;;;;;;7.27;3.00;;;;;;;16.40;53.07;98767.38;6811685;29;20236;-82
2024/04/06 05:54:12;;;;;;;4.97;3.20;;;;;;;16.35;52.44;98786.28;6809762;29;20215;-82
2024/04/06 05:57:35;;;;;;;4.40;3.10;;;;;;;16.86;50.76;98799.84;6809122;29;20233;-82
2024/04/06 06:00:56;;;;;;;5.67;2.87;;;;;;;17.36;50.07;98796.06;6813625;29;20652;-82
2024/04/06 06:04:17;;;;;;;5.57;2.57;;;;;;;17.51;49.89;98784.59;6814814;29;20327;-82
2024/04/06 06:07:39;;;;;;;4.00;2.80;;;;;;;16.71;51.69;98792.22;6814433;29;20204;-82
2024/04/06 06:11:02;;;;;;;6.50;2.90;;;;;;;17.80;49.01;98794.31;6813785;29;20236;-82
2024/04/06 06:14:24;;;;;;;2.80;2.50;;;;;;;18.08;48.92;98786.78;6828759;29;20212;-82
2024/04/06 06:17:45;;;;;;;3.00;2.80;;;;;;;18.05;49.63;98790.00;6817788;29;20206;-82
2024/04/06 06:21:07;;;;;;;6.53;2.63;;;;;;;18.49;48.35;98788.13;6815318;29;20261;-83
2024/04/06 06:24:27;;;;;;;7.00;2.60;;;;;;;19.45;46.01;98788.00;6810725;29;20325;-81
2024/04/06 06:27:50;;;;;;;3.33;2.43;;;;;;;19.74;45.45;98776.41;6813028;29;20242;-85
2024/04/06 06:31:12;;;;;;;4.83;2.43;;;;;;;19.54;45.28;98783.66;6816952;29;20321;-86
2024/04/06 06:34:35;;;;;;;5.67;2.80;;;;;;;19.56;46.07;98771.38;6818716;29;20234;-83
2024/04/06 06:38:01;;;;;;;5.03;2.30;;;;;;;19.88;46.74;98755.69;6815730;29;20323;-83
2024/04/06 06:41:21;;;;;;;2.40;2.17;;;;;;;20.41;45.15;98782.78;6822223;29;20211;-86
2024/04/06 06:44:45;;;;;;;4.27;2.83;;;;;;;20.40;44.86;98774.84;6827179;29;20241;-91
2024/04/06 07:09:57;;;;;;;3.27;2.90;;;;;;;21.55;43.07;98798.59;6778987;29;20210;-88
2024/04/06 07:17:37;;;;;;;3.07;2.40;;;;;;;23.08;40.69;98796.72;6752198;29;20202;-87
2024/04/06 07:25:36;;;;;;;4.10;2.70;;;;;;;22.84;40.59;98796.59;6702782;29;20242;-86
2024/04/06 07:29:52;;;;;;;3.23;2.73;;;;;;;23.28;41.05;98797.44;6813490;29;20241;-86
2024/04/06 07:47:11;;;;;;;4.93;3.47;;;;;;;24.21;38.90;98798.75;6678574;29;20195;-90
2024/04/06 08:04:45;;;;;;;3.87;2.53;;;;;;;25.88;36.37;98805.16;6625754;29;20228;-87
2024/04/06 09:15:30;;;;;;;3.80;2.27;;;;;;;30.00;27.06;98753.09;6814129;29;20192;-85
2024/04/06 09:27:18;;;;;;;2.13;1.77;;;;;;;30.18;23.44;98728.84;6685200;29;20238;-86
2024/04/06 09:31:07;;;;;;;1.80;1.70;;;;;;;30.17;23.71;98728.03;6823108;29;20228;-86
2024/04/06 09:34:29;;;;;;;1.97;1.67;;;;;;;30.31;23.93;98677.75;6816714;29;20217;-87
2024/04/06 09:38:05;;;;;;;2.20;1.90;;;;;;;30.32;22.97;98724.69;6820283;29;20271;-87
2024/04/06 09:41:26;;;;;;;2.30;1.80;;;;;;;30.99;22.56;98700.38;6819333;29;20223;-87
2024/04/06 09:45:19;;;;;;;;;;;;;;;;;;;;;
2024/04/06 09:48:55;;;;;;;1.40;1.30;;;;;;;31.33;22.30;98719.59;6737085;29;20235;-89
2024/04/06 10:17:47;;;;;;;2.20;1.30;;;;;;;32.06;19.43;98682.38;6619500;29;20229;-88
2024/04/06 10:21:10;;;;;;;2.13;1.13;;;;;;;31.54;19.37;98656.25;6678994;29;20262;-89
2024/04/06 10:24:31;;;;;;;2.20;1.03;;;;;;;31.71;18.54;98685.88;6711790;29;20262;-88
2024/04/06 10:28:24;;;;;;;1.60;1.50;;;;;;;30.80;19.01;98677.75;6764615;29;20723;-92
2024/04/06 10:32:20;;;;;;;1.57;1.10;;;;;;;31.40;18.87;98696.72;6761964;29;20320;-91
2024/04/06 10:39:30;;;;;;;1.60;1.50;;;;;;;32.02;18.58;98675.06;6758995;29;20337;-88
2024/04/06 10:42:51;;;;;;;1.70;1.50;;;;;;;32.40;18.03;98662.41;6826799;29;20679;-87
2024/04/06 10:46:12;;;;;;;3.43;1.40;;;;;;;32.38;18.60;98617.25;6830711;29;20208;-91
2024/04/06 10:49:37;;;;;;;2.67;1.60;;;;;;;32.42;18.70;98684.41;6830337;29;20725;-90
2024/04/06 10:53:00;;;;;;;2.83;1.53;;;;;;;32.72;18.79;98657.81;6832240;29;20230;-90
2024/04/06 11:05:11;;;;;;;1.50;1.40;;;;;;;32.07;20.06;98669.25;6762501;29;20241;-88
2024/04/06 11:51:44;;;;;;;1.70;1.47;;;;;;;33.33;15.92;98634.09;6716268;29;20227;-90
2024/04/06 11:55:38;;;;;;;1.20;1.13;;;;;;;34.03;15.37;98628.38;6745047;29;20215;-89
2024/04/06 11:59:31;;;;;;;1.23;1.00;;;;;;;33.91;15.85;98624.91;6915033;23;20235;-92
2024/04/06 12:15:40;;;;;;;1.70;1.30;;;;;;;32.91;15.24;98575.00;6758427;29;20322;-87
2024/04/06 12:19:02;;;;;;;1.33;1.23;;;;;;;32.93;14.63;98536.38;6781447;23;20235;-84
2024/04/06 12:22:24;;;;;;;1.20;1.10;;;;;;;33.51;14.52;98605.47;6784137;29;20215;-86
2024/04/06 12:25:46;;;;;;;1.97;1.30;;;;;;;32.77;14.32;98604.53;6787356;29;20554;-86
2024/04/06 12:29:45;;;;;;;3.33;1.07;;;;;;;32.00;14.96;98516.41;6906396;23;20297;-87
2024/04/06 12:33:08;;;;;;;2.10;1.40;;;;;;;33.49;15.18;98582.63;6786634;29;20219;-88
2024/04/06 12:36:57;;;;;;;1.90;1.13;;;;;;;34.16;14.46;98562.75;6788372;29;20214;-89
2024/04/06 12:41:23;;;;;;;2.57;1.50;;;;;;;33.97;15.05;98570.28;6971699;23;20294;-89
2024/04/06 13:16:32;;;;;;;2.40;1.27;;;;;;;34.21;13.85;98536.47;6756371;29;20290;-91
2024/04/06 14:33:00;;;;;;;1.50;1.30;;;;;;;33.86;14.03;98468.50;6826711;29;20268;-91
2024/04/06 14:36:25;;;;;;;2.93;1.53;;;;;;;33.44;14.13;98462.66;6838170;28;20221;-93
2024/04/06 15:01:59;;;;;;;1.37;1.20;;;;;;;33.55;13.18;98440.56;6784373;29;20224;-91
2024/04/06 15:15:12;;;;;;;1.80;1.30;;;;;;;33.82;12.86;98439.63;6770823;29;20276;-89
2024/04/06 15:18:40;;;;;;;1.37;1.20;;;;;;;33.35;11.83;98424.91;6772518;29;20642;-90
2024/04/06 15:22:05;;;;;;;13.13;2.00;;;;;;;32.79;12.17;98404.69;6770616;29;20235;-90
2024/04/06 15:25:26;;;;;;;1.57;1.27;;;;;;;32.55;12.73;98423.56;6760302;29;20242;-90
2024/04/06 15:29:21;;;;;;;2.23;1.17;;;;;;;33.14;12.19;98418.78;6781227;29;20224;-88
2024/04/06 15:33:01;;;;;;;1.13;1.03;;;;;;;33.22;12.62;98409.38;6670269;29;20229;-92
2024/04/06 15:37:23;;;;;;;1.47;1.27;;;;;;;33.33;13.08;98416.91;6690482;29;20223;-89
2024/04/06 15:40:26;;;;;;;1.77;1.43;;;;;;;33.07;12.43;98424.97;6754194;29;20735;-91
2024/04/06 15:43:47;;;;;;;1.33;1.23;;;;;;;33.42;13.09;98399.94;6767701;29;20363;-92
2024/04/06 15:47:09;;;;;;;2.40;1.40;;;;;;;33.73;12.85;98431.41;6764948;29;20621;-89
2024/04/06 15:50:31;;;;;;;1.00;1.00;;;;;;;33.66;13.44;98420.06;6768435;29;20223;-88
2024/04/06 15:53:52;;;;;;;1.87;1.07;;;;;;;33.04;13.15;98386.59;6767643;29;20208;-88
2024/04/06 15:57:15;;;;;;;1.30;1.20;;;;;;;33.52;12.91;98427.31;6765833;29;20208;-90
2024/04/06 16:00:51;;;;;;;4.17;1.50;;;;;;;33.34;13.78;98423.28;6773278;28;20211;-89
2024/04/06 16:04:13;;;;;;;1.43;1.33;;;;;;;32.97;14.52;98380.81;6783880;28;20238;-91
2024/04/06 16:07:34;;;;;;;2.63;1.47;;;;;;;33.35;13.57;98416.50;6788336;29;20223;-91
2024/04/06 16:58:16;;;;;;;4.23;3.27;;;;;;;31.19;22.99;98432.09;6773642;29;20300;-89
2024/04/06 17:01:40;;;;;;;7.97;3.23;;;;;;;30.91;23.90;98439.47;6777835;29;20221;-91
2024/04/06 17:08:49;;;;;;;44.27;39.23;;;;;;;29.87;24.75;98387.16;6749445;29;20237;-89
2024/04/06 17:12:10;;;;;;;6.70;4.03;;;;;;;29.54;25.59;98402.94;6764701;29;20228;-89
2024/04/06 17:15:33;;;;;;;5.23;3.90;;;;;;;29.52;26.85;98424.66;6763668;29;20526;-89
2024/04/06 17:18:56;;;;;;;6.97;4.90;;;;;;;29.55;26.64;98418.47;6763340;29;20616;-87
2024/04/06 17:22:18;;;;;;;7.57;4.50;;;;;;;29.70;27.05;98451.22;6766845;29;20300;-88
2024/04/06 17:25:43;;;;;;;5.17;3.23;;;;;;;29.15;28.04;98422.78;6764573;29;20325;-88
2024/04/06 17:29:05;;;;;;;5.03;3.13;;;;;;;28.80;28.88;98453.75;6771599;29;20297;-88
2024/04/06 17:32:27;;;;;;;6.57;3.03;;;;;;;28.47;30.12;98450.72;6771980;29;20211;-87
2024/04/06 17:48:56;;;;;;;9.97;5.97;;;;;;;27.03;32.18;98462.41;6758478;29;20220;-85
2024/04/06 17:52:41;;;;;;;7.90;4.00;;;;;;;27.20;31.65;98465.25;6766959;29;20235;-85
2024/04/06 18:36:26;;;;;;;7.40;3.37;;;;;;;25.15;34.86;98505.28;6698668;29;20201;-85
2024/04/06 18:39:49;;;;;;;5.30;3.43;;;;;;;24.57;35.99;98502.25;6699676;29;20266;-88
2024/04/06 18:43:11;;;;;;;6.13;4.10;;;;;;;24.39;36.28;98503.09;6706875;29;20225;-84
2024/04/06 18:46:32;;;;;;;7.07;4.00;;;;;;;24.51;36.38;98516.38;6756978;29;20317;-86
2024/04/06 18:49:53;;;;;;;11.33;4.03;;;;;;;24.57;35.81;98517.97;6750147;29;20312;-86
2024/04/06 18:53:18;;;;;;;5.57;3.80;;;;;;;24.71;35.12;98521.59;6753953;29;20493;-85
2024/04/06 18:56:40;;;;;;;7.37;4.37;;;;;;;24.45;35.20;98509.31;6761784;29;20219;-85
2024/04/06 19:00:01;;;;;;;5.63;4.20;;;;;;;24.62;34.73;98526.97;6762608;29;20321;-84
2024/04/06 19:03:23;;;;;;;6.67;4.67;;;;;;;24.50;33.74;98485.25;6764668;29;20583;-85
2024/04/06 19:06:44;;;;;;;7.90;5.57;;;;;;;24.65;33.99;98520.03;6765043;29;20236;-84
2024/04/06 19:10:10;;;;;;;7.97;5.43;;;;;;;24.66;34.57;98519.72;6766239;29;20711;-85
2024/04/06 19:13:35;;;;;;;11.00;5.70;;;;;;;24.10;35.03;98483.19;6761137;29;20736;-85
2024/04/06 19:16:57;;;;;;;7.90;6.07;;;;;;;24.11;35.53;98484.81;6760803;29;20230;-86
2024/04/06 19:20:18;;;;;;;8.50;5.93;;;;;;;24.18;35.41;98479.72;6762176;29;20224;-86
2024/04/06 19:23:39;;;;;;;10.80;5.97;;;;;;;24.28;35.69;98542.13;6761246;29;20243;-85
2024/04/06 19:27:03;;;;;;;13.10;5.87;;;;;;;24.00;35.92;98515.53;6760998;29;20690;-86
2024/04/06 19:30:28;;;;;;;8.23;5.30;;;;;;;23.66;36.86;98512.19;6763143;29;20717;-85
2024/04/06 19:33:50;;;;;;;10.40;5.93;;;;;;;23.37;37.64;98539.78;6763583;29;20224;-85
2024/04/06 19:37:11;;;;;;;8.73;6.43;;;;;;;22.78;38.72;98525.56;6763550;29;20581;-86
2024/04/06 19:40:32;;;;;;;9.87;6.83;;;;;;;22.78;39.35;98561.28;6762561;29;20712;-86
2024/04/06 19:43:55;;;;;;;13.23;6.57;;;;;;;22.89;38.46;98554.59;6755534;29;20212;-85
2024/04/06 19:47:16;;;;;;;9.30;6.27;;;;;;;22.50;39.72;98558.53;6762002;29;20209;-84
2024/04/06 19:50:38;;;;;;;11.27;6.83;;;;;;;22.78;39.08;98547.53;6761861;29;20322;-86
2024/04/06 19:53:59;;;;;;;11.70;7.17;;;;;;;21.84;41.00;98536.19;6763382;29;20707;-85
2024/04/06 19:57:20;;;;;;;14.67;7.50;;;;;;;22.03;40.74;98550.91;6761431;29;20222;-85
2024/04/06 20:00:42;;;;;;;9.50;6.40;;;;;;;22.28;40.31;98563.63;6759955;29;20731;-86
2024/04/06 20:04:04;;;;;;;10.70;6.47;;;;;;;22.53;39.60;98545.03;6759970;29;20755;-86
2024/04/06 20:07:25;;;;;;;8.90;6.77;;;;;;;22.29;40.22;98537.78;6759848;29;20735;-86
2024/04/06 20:10:46;;;;;;;14.83;6.83;;;;;;;22.50;39.37;98548.38;6758402;29;20235;-86
2024/04/06 20:14:08;;;;;;;12.47;7.87;;;;;;;22.49;39.36;98557.69;6760835;29;20212;-86
2024/04/06 20:17:30;;;;;;;9.60;7.50;;;;;;;22.51;39.59;98561.00;6758731;29;20301;-82
2024/04/06 20:20:51;;;;;;;12.67;8.47;;;;;;;22.48;39.21;98553.31;6758867;29;20609;-85
2024/04/06 20:27:53;;;;;;;18.40;11.90;;;;;;;21.28;42.01;98556.72;6756799;29;20671;-85
2024/04/06 20:31:16;;;;;;;14.27;8.60;;;;;;;21.15;42.10;98559.25;6758749;29;20238;-84
2024/04/06 20:34:39;;;;;;;11.60;7.07;;;;;;;21.14;42.05;98552.13;6751481;29;20349;-83
2024/04/06 20:38:01;;;;;;;10.77;5.47;;;;;;;21.19;41.67;98550.16;6758404;29;20687;-82
2024/04/06 20:41:22;;;;;;;12.00;5.10;;;;;;;21.28;41.23;98555.91;6758973;29;20244;-83
2024/04/06 20:44:44;;;;;;;11.77;4.93;;;;;;;21.58;40.76;98561.25;6758319;29;20243;-84
2024/04/06 20:48:07;;;;;;;8.67;5.53;;;;;;;21.63;41.02;98563.97;6758257;29;20210;-83
2024/04/06 20:51:29;;;;;;;9.87;5.70;;;;;;;21.47;41.22;98567.88;6757817;29;20252;-82
2024/04/06 20:54:51;;;;;;;9.60;6.60;;;;;;;21.10;42.06;98558.44;6756482;29;20221;-80
2024/04/06 20:58:12;;;;;;;9.70;5.67;;;;;;;20.61;43.26;98551.91;6758605;29;20723;-81
2024/04/06 21:01:34;;;;;;;11.93;7.10;;;;;;;20.83;42.72;98560.66;6761150;29;20237;-81
2024/04/06 21:04:55;;;;;;;10.07;5.40;;;;;;;20.77;42.79;98561.75;6762037;29;20320;-81
2024/04/06 21:08:17;;;;;;;6.67;5.20;;;;;;;20.78;42.58;98564.22;6763558;29;20266;-81
2024/04/06 21:11:39;;;;;;;9.03;5.13;;;;;;;20.99;41.78;98563.09;6763546;29;20207;-81
2024/04/06 21:15:06;;;;;;;5.40;4.60;;;;;;;21.07;41.85;98557.09;6748465;29;20299;-81
2024/04/06 21:18:27;;;;;;;8.60;5.23;;;;;;;20.97;41.55;98553.53;6761499;29;20232;-82
2024/04/06 21:21:48;;;;;;;8.63;5.30;;;;;;;20.96;41.89;98557.38;6764158;29;20772;-81
2024/04/06 21:25:11;;;;;;;8.93;5.60;;;;;;;20.81;42.33;98546.41;6760760;29;20706;-82
2024/04/06 21:28:33;;;;;;;9.07;4.97;;;;;;;20.77;42.47;98553.53;6756950;29;20279;-81
2024/04/06 21:31:54;;;;;;;13.67;6.03;;;;;;;20.38;43.27;98556.03;6757701;29;20695;-81
2024/04/06 21:35:15;;;;;;;14.70;6.07;;;;;;;19.90;44.37;98566.63;6757694;29;20611;-81
2024/04/06 21:38:39;;;;;;;10.23;5.30;;;;;;;20.26;43.21;98565.59;6756508;29;20727;-82
2024/04/06 21:42:01;;;;;;;7.13;4.73;;;;;;;20.47;42.41;98561.78;6757253;29;20264;-82
2024/04/06 21:45:22;;;;;;;7.67;4.87;;;;;;;20.21;42.93;98560.13;6757811;29;20234;-82
2024/04/06 21:48:43;;;;;;;8.47;4.43;;;;;;;20.27;42.98;98559.06;6756880;29;20233;-81
2024/04/06 21:52:05;;;;;;;11.57;4.60;;;;;;;20.14;42.81;98560.41;6755902;29;20220;-82
2024/04/06 21:55:26;;;;;;;9.17;4.80;;;;;;;20.22;43.17;98564.53;6757300;29;20328;-82
2024/04/06 21:58:49;;;;;;;7.43;4.60;;;;;;;20.47;42.61;98556.31;6757049;29;20323;-82
2024/04/06 22:02:11;;;;;;;7.63;4.90;;;;;;;20.51;42.49;98557.41;6757563;29;20223;-82
2024/04/06 22:05:32;;;;;;;8.40;4.70;;;;;;;20.22;42.80;98553.56;6757007;29;20333;-82
2024/04/06 22:08:53;;;;;;;9.70;4.00;;;;;;;20.57;41.84;98568.06;6755100;29;20292;-82
2024/04/06 22:12:14;;;;;;;6.27;3.60;;;;;;;20.23;42.27;98563.44;6754971;29;20297;-82
2024/04/06 22:15:37;;;;;;;8.47;3.67;;;;;;;20.49;41.95;98576.84;6756449;29;20265;-82
2024/04/06 22:18:58;;;;;;;7.03;4.00;;;;;;;20.53;41.70;98583.44;6755532;29;20707;-81
2024/04/06 22:22:19;;;;;;;6.07;3.77;;;;;;;20.17;42.49;98586.41;6756476;29;20226;-81
2024/04/06 22:25:43;;;;;;;5.67;4.00;;;;;;;20.50;41.64;98580.41;6756863;29;20232;-81
2024/04/06 22:29:05;;;;;;;5.17;3.57;;;;;;;20.18;42.17;98575.19;6754549;29;20726;-81
2024/04/06 22:32:27;;;;;;;7.67;3.70;;;;;;;20.22;42.14;98595.44;6756921;29;20293;-81
2024/04/06 22:35:48;;;;;;;5.40;3.60;;;;;;;19.94;42.84;98606.84;6758649;29;20557;-81
2024/04/06 22:39:09;;;;;;;4.30;3.30;;;;;;;19.85;42.80;98593.97;6761854;29;20372;-82
2024/04/06 22:42:31;;;;;;;4.77;3.33;;;;;;;19.20;44.58;98593.66;6763402;29;20223;-81
2024/04/06 22:45:52;;;;;;;4.30;3.00;;;;;;;19.15;44.56;98591.72;6762603;29;20235;-82
2024/04/06 22:49:15;;;;;;;5.37;3.70;;;;;;;19.55;43.78;98586.50;6763254;29;20264;-82
2024/04/06 22:52:36;;;;;;;7.07;2.63;;;;;;;19.61;43.28;98585.41;6763532;29;20696;-82
2024/04/06 22:55:57;;;;;;;5.10;2.73;;;;;;;19.67;43.45;98584.34;6762879;29;20213;-81
2024/04/06 22:59:18;;;;;;;6.33;3.30;;;;;;;19.63;43.54;98577.75;6762844;29;20328;-81
2024/04/06 23:02:39;;;;;;;5.37;2.80;;;;;;;19.43;43.70;98585.06;6763153;29;20213;-81
2024/04/06 23:06:02;;;;;;;2.70;2.50;;;;;;;19.69;43.10;98587.63;6763009;29;20238;-81
2024/04/06 23:09:23;;;;;;;4.27;2.90;;;;;;;19.55;42.73;98566.50;6762749;29;20373;-81
2024/04/06 23:12:45;;;;;;;4.93;3.20;;;;;;;19.56;43.20;98574.44;6760888;29;20212;-81
2024/04/06 23:16:05;;;;;;;5.57;2.80;;;;;;;19.41;43.75;98568.91;6762980;29;20208;-81
2024/04/06 23:19:27;;;;;;;5.23;2.40;;;;;;;19.43;43.90;98574.13;6762304;29;20236;-81
2024/04/06 23:22:49;;;;;;;3.60;2.77;;;;;;;19.19;44.51;98565.50;6762627;29;20265;-81
2024/04/06 23:26:11;;;;;;;4.97;2.70;;;;;;;19.17;44.24;98554.00;6762477;29;20728;-81
2024/04/06 23:29:31;;;;;;;4.77;2.80;;;;;;;19.38;44.14;98552.22;6762135;29;20296;-81
2024/04/06 23:32:53;;;;;;;3.77;2.70;;;;;;;19.48;43.53;98552.25;6761824;29;20266;-82
2024/04/06 23:36:13;;;;;;;3.70;2.63;;;;;;;19.49;43.15;98559.38;6762636;29;20266;-81
2024/04/06 23:39:36;;;;;;;7.43;3.10;;;;;;;19.35;43.86;98552.78;6762850;29;20234;-81
2024/04/06 23:42:57;;;;;;;3.80;2.70;;;;;;;19.36;43.84;98540.75;6762192;29;20261;-81
2024/04/06 23:46:18;;;;;;;4.70;2.90;;;;;;;19.43;43.78;98550.34;6737822;29;20237;-81
2024/04/06 23:49:40;;;;;;;4.53;2.60;;;;;;;19.21;44.03;98543.44;6736214;29;20287;-81
2024/04/06 23:53:00;;;;;;;4.47;2.77;;;;;;;19.23;43.96;98543.97;6733960;29;20308;-81